createdAt,value
2018-10-02T00:00:57.132Z,100469.48
2018-10-02T00:06:00.415Z,100462.73
2018-10-02T00:11:09.028Z,100473.30
2018-10-02T00:16:12.327Z,100470.38
2018-10-02T00:21:15.641Z,100468.91
2018-10-02T00:26:18.931Z,100467.94
2018-10-02T00:31:22.256Z,100467.14
2018-10-02T00:36:25.624Z,100461.48
2018-10-02T00:41:28.940Z,100469.77
2018-10-02T00:46:32.500Z,100472.78
2018-10-02T00:51:35.816Z,100473.94
2018-10-02T00:56:39.124Z,100475.93
2018-10-02T01:01:42.396Z,100474.44
2018-10-02T01:06:45.691Z,100479.39
2018-10-02T01:11:48.979Z,100480.09
2018-10-02T01:16:52.269Z,100476.63
2018-10-02T01:21:55.536Z,100477.60
2018-10-02T01:26:58.823Z,100474.00
2018-10-02T01:32:02.120Z,100471.48
2018-10-02T01:37:05.415Z,100474.95
2018-10-02T01:42:08.740Z,100479.89
2018-10-02T01:47:12.027Z,100481.55
2018-10-02T01:52:15.315Z,100485.70
2018-10-02T01:57:18.588Z,100485.35
2018-10-02T02:02:21.875Z,100484.70
2018-10-02T02:07:25.165Z,100486.33
2018-10-02T02:12:28.471Z,100485.50
2018-10-02T02:17:31.780Z,100491.78
2018-10-02T02:22:35.128Z,100491.44
2018-10-02T02:27:38.412Z,100496.24
2018-10-02T02:32:41.696Z,100500.70
2018-10-02T02:37:45.048Z,100502.84
2018-10-02T02:42:48.295Z,100511.13
2018-10-02T02:47:56.984Z,100515.26
2018-10-02T02:53:04.053Z,100506.15
2018-10-02T02:58:07.337Z,100501.86
2018-10-02T03:03:10.623Z,100499.71
2018-10-02T03:08:13.905Z,100493.91
2018-10-02T03:13:17.176Z,100498.68
2018-10-02T03:18:20.488Z,100490.40
2018-10-02T03:23:23.800Z,100482.12
2018-10-02T03:28:27.092Z,100488.87
2018-10-02T03:33:30.420Z,100496.14
2018-10-02T03:38:33.719Z,100500.07
2018-10-02T03:43:37.017Z,100498.25
2018-10-02T03:48:40.321Z,100501.72
2018-10-02T03:53:43.607Z,100489.17
2018-10-02T03:58:46.892Z,100488.87
2018-10-02T04:03:50.191Z,100485.89
2018-10-02T04:08:53.515Z,100486.22
2018-10-02T04:13:56.921Z,100489.03
2018-10-02T04:19:00.251Z,100493.98
2018-10-02T04:24:05.172Z,100494.59
2018-10-02T04:29:08.508Z,100496.88
2018-10-02T04:34:11.863Z,100501.97
2018-10-02T04:39:15.077Z,100509.39
2018-10-02T04:44:18.343Z,100512.00
2018-10-02T04:49:21.643Z,100521.97
2018-10-02T04:54:24.972Z,100527.94
2018-10-02T04:59:28.550Z,100531.74
2018-10-02T05:04:31.863Z,100521.34
2018-10-02T05:09:35.160Z,100520.55
2018-10-02T05:14:38.449Z,100533.42
2018-10-02T05:19:41.805Z,100533.42
2018-10-02T05:24:45.113Z,100538.21
2018-10-02T05:29:48.417Z,100534.24
2018-10-02T05:34:51.783Z,100534.60
2018-10-02T05:39:55.040Z,100542.03
2018-10-02T05:44:58.304Z,100542.06
2018-10-02T05:50:01.589Z,100552.83
2018-10-02T05:55:05.865Z,100542.78
2018-10-02T06:00:09.266Z,100554.36
2018-10-02T06:05:12.580Z,100550.90
2018-10-02T06:10:15.873Z,100553.02
2018-10-02T06:15:19.168Z,100555.66
2018-10-02T06:20:22.452Z,100554.34
2018-10-02T06:25:25.745Z,100557.48
2018-10-02T06:30:29.109Z,100546.96
2018-10-02T06:35:32.362Z,100552.28
2018-10-02T06:40:35.667Z,100550.69
2018-10-02T06:45:38.977Z,100559.00
2018-10-02T06:50:42.282Z,100562.54
2018-10-02T06:55:45.564Z,100561.90
2018-10-02T07:00:48.949Z,100567.50
2018-10-02T07:05:52.229Z,100568.66
2018-10-02T07:10:55.510Z,100565.32
2018-10-02T07:15:58.783Z,100568.97
2018-10-02T07:21:02.100Z,100574.28
2018-10-02T07:26:05.368Z,100558.55
2018-10-02T07:31:08.738Z,100568.97
2018-10-02T07:36:11.976Z,100554.55
2018-10-02T07:41:15.249Z,100551.18
2018-10-02T07:46:18.545Z,100540.52
2018-10-02T07:51:21.821Z,100549.19
2018-10-02T07:56:25.162Z,100544.64
2018-10-02T08:01:28.454Z,100545.29
2018-10-02T08:06:31.741Z,100549.46
2018-10-02T08:11:35.026Z,100542.82
2018-10-02T08:16:38.805Z,100532.33
2018-10-02T08:21:42.081Z,100546.53
2018-10-02T08:26:45.433Z,100528.37
2018-10-02T08:31:48.689Z,100529.81
2018-10-02T08:36:51.970Z,100529.63
2018-10-02T08:41:55.314Z,100499.98
2018-10-02T08:46:58.581Z,100489.37
2018-10-02T08:52:01.907Z,100481.91
2018-10-02T08:57:05.500Z,100496.00
2018-10-02T09:02:08.793Z,100501.27
2018-10-02T09:07:12.077Z,100482.61
2018-10-02T09:12:15.368Z,100494.30
2018-10-02T09:17:18.652Z,100471.95
2018-10-02T09:22:21.941Z,100461.47
2018-10-02T09:27:25.236Z,100448.86
2018-10-02T09:32:33.750Z,100448.30
2018-10-02T09:37:42.413Z,100466.61
2018-10-02T09:42:51.015Z,100449.88
2018-10-02T09:47:54.341Z,100447.29
2018-10-02T09:52:57.628Z,100450.41
2018-10-02T09:58:00.953Z,100449.91
2018-10-02T10:03:04.343Z,100463.77
2018-10-02T10:08:07.584Z,100463.95
2018-10-02T10:13:10.874Z,100440.95
2018-10-02T10:18:14.148Z,100452.94
2018-10-02T10:23:17.445Z,100433.78
2018-10-02T10:28:20.737Z,100439.03
2018-10-02T10:33:24.035Z,100427.48
2018-10-02T10:38:27.384Z,100440.50
2018-10-02T10:43:30.698Z,100445.67
2018-10-02T10:48:33.978Z,100439.58
2018-10-02T10:53:37.288Z,100432.88
2018-10-02T10:58:40.680Z,100428.45
2018-10-02T11:03:43.921Z,100443.08
2018-10-02T11:08:47.260Z,100423.95
2018-10-02T11:13:50.598Z,100415.03
2018-10-02T11:18:53.905Z,100402.36
2018-10-02T11:23:57.410Z,100397.33
2018-10-02T11:29:00.716Z,100403.81
2018-10-02T11:34:04.005Z,100390.28
2018-10-02T11:39:07.309Z,100385.72
2018-10-02T11:44:10.651Z,100396.90
2018-10-02T11:49:13.992Z,100381.70
2018-10-02T11:54:17.240Z,100360.47
2018-10-02T11:59:20.558Z,100364.95
2018-10-02T12:04:23.853Z,100357.62
2018-10-02T12:09:27.247Z,100345.69
2018-10-02T12:14:30.772Z,100331.02
2018-10-02T12:19:34.108Z,100321.68
2018-10-02T12:24:37.317Z,100304.86
2018-10-02T12:29:40.616Z,100294.86
2018-10-02T12:34:43.916Z,100282.59
2018-10-02T12:39:48.275Z,100283.72
2018-10-02T12:44:51.640Z,100266.95
2018-10-02T12:49:54.996Z,100273.28
2018-10-02T12:54:58.316Z,100263.39
2018-10-02T13:00:01.625Z,100258.56
2018-10-02T13:05:05.875Z,100262.40
2018-10-02T13:10:09.246Z,100251.19
2018-10-02T13:15:12.544Z,100228.50
2018-10-02T13:20:15.873Z,100211.44
2018-10-02T13:25:19.241Z,100210.59
2018-10-02T13:30:22.604Z,100206.92
2018-10-02T13:35:25.908Z,100199.81
2018-10-02T13:40:29.225Z,100180.89
2018-10-02T13:45:32.719Z,100177.64
2018-10-02T13:50:36.011Z,100176.63
2018-10-02T13:55:39.350Z,100171.36
2018-10-02T14:00:43.252Z,100164.50
2018-10-02T14:05:46.576Z,100163.47
2018-10-02T14:10:49.967Z,100161.53
2018-10-02T14:15:53.585Z,100147.05
2018-10-02T14:20:56.891Z,100144.94
2018-10-02T14:31:27.701Z,100131.34
2018-10-02T14:36:31.062Z,100121.28
2018-10-02T14:41:34.360Z,100118.28
2018-10-02T14:46:38.479Z,100113.92
2018-10-02T14:51:42.198Z,100108.89
2018-10-02T14:56:45.555Z,100102.89
2018-10-02T15:01:49.329Z,100099.38
2018-10-02T15:06:53.004Z,100095.88
2018-10-02T15:11:56.413Z,100086.95
2018-10-02T15:16:59.785Z,100077.85
2018-10-02T15:22:03.263Z,100075.83
2018-10-02T15:27:06.651Z,100072.98
2018-10-02T15:32:09.967Z,100067.33
2018-10-02T15:37:13.284Z,100056.26
2018-10-02T15:42:16.681Z,100049.89
2018-10-02T15:47:19.984Z,100050.55
2018-10-02T15:52:23.404Z,100047.20
2018-10-02T15:57:26.762Z,100044.66
2018-10-02T16:02:30.149Z,100047.47
2018-10-02T16:07:33.453Z,100030.15
2018-10-02T16:12:36.872Z,100041.92
2018-10-02T16:17:40.264Z,100039.27
2018-10-02T16:22:43.729Z,100048.87
2018-10-02T16:27:47.145Z,100046.84
2018-10-02T16:32:50.472Z,100054.80
2018-10-02T16:37:53.908Z,100061.67
2018-10-02T16:42:57.268Z,100065.45
2018-10-02T16:48:00.661Z,100065.67
2018-10-02T16:53:04.000Z,100066.45
2018-10-02T16:58:07.578Z,100077.11
2018-10-02T17:03:10.951Z,100072.03
2018-10-02T17:08:14.299Z,100083.55
2018-10-02T17:13:17.665Z,100088.28
2018-10-02T17:18:21.077Z,100086.13
2018-10-02T17:23:24.677Z,100076.80
2018-10-02T17:28:28.888Z,100087.27
2018-10-02T17:33:33.763Z,100075.34
2018-10-02T17:38:37.301Z,100065.25
2018-10-02T17:43:40.593Z,100068.17
2018-10-02T17:48:43.905Z,100077.08
2018-10-02T17:53:47.268Z,100081.05
2018-10-02T17:58:50.829Z,100088.81
2018-10-02T18:03:54.270Z,100090.14
2018-10-02T18:08:57.595Z,100102.07
2018-10-02T18:14:00.896Z,100089.78
2018-10-02T18:19:05.080Z,100089.78
2018-10-02T18:24:08.474Z,100088.27
2018-10-02T18:29:12.117Z,100088.89
2018-10-02T18:34:15.482Z,100091.39
2018-10-02T18:39:18.888Z,100117.52
2018-10-02T18:44:22.334Z,100109.22
2018-10-02T18:49:25.696Z,100117.80
2018-10-02T18:54:29.046Z,100107.66
2018-10-02T18:59:32.473Z,100088.20
2018-10-02T19:04:35.888Z,100101.61
2018-10-02T19:09:39.233Z,100099.58
2018-10-02T19:14:42.530Z,100096.06
2018-10-02T19:19:52.987Z,100089.20
2018-10-02T19:25:01.765Z,100095.12
2018-10-02T19:30:11.084Z,100096.70
2018-10-02T19:35:15.202Z,100093.36
2018-10-02T19:40:18.713Z,100078.70
2018-10-02T19:45:27.384Z,100075.47
2018-10-02T19:50:30.697Z,100074.09
2018-10-02T19:55:34.140Z,100082.00
2018-10-02T20:00:37.672Z,100076.30
2018-10-02T20:05:40.980Z,100083.59
2018-10-02T20:10:44.300Z,100087.18
2018-10-02T20:15:47.802Z,100090.80
2018-10-02T20:20:51.096Z,100088.56
2018-10-02T20:25:54.654Z,100087.70
2018-10-02T20:30:58.362Z,100098.23
2018-10-02T20:36:01.930Z,100089.09
2018-10-02T20:41:05.384Z,100103.38
2018-10-02T20:46:08.756Z,100120.95
2018-10-02T20:51:12.162Z,100107.98
2018-10-02T20:56:15.559Z,100105.95
2018-10-02T21:01:19.004Z,100122.34
2018-10-02T21:06:22.319Z,100116.83
2018-10-02T21:11:25.815Z,100104.38
2018-10-02T21:16:29.301Z,100111.02
2018-10-02T21:21:32.761Z,100109.06
2018-10-02T21:26:36.045Z,100112.93
2018-10-02T21:31:39.688Z,100092.00
2018-10-02T21:36:43.216Z,100091.80
2018-10-02T21:41:46.552Z,100098.23
2018-10-02T21:46:49.879Z,100100.89
2018-10-02T21:51:53.351Z,100089.25
2018-10-02T21:56:56.837Z,100091.75
2018-10-02T22:02:00.255Z,100074.48
2018-10-02T22:07:03.709Z,100074.59
2018-10-02T22:12:07.106Z,100065.30
2018-10-02T22:17:10.489Z,100068.46
2018-10-02T22:22:13.840Z,100076.23
2018-10-02T22:27:17.136Z,100078.20
2018-10-02T22:32:20.544Z,100070.55
2018-10-02T22:37:23.909Z,100081.12
2018-10-02T22:42:27.389Z,100066.92
2018-10-02T22:47:30.812Z,100083.00
2018-10-02T22:52:34.432Z,100072.80
2018-10-02T22:57:37.976Z,100089.25
2018-10-02T23:02:41.301Z,100071.10
2018-10-02T23:07:44.601Z,100069.47
2018-10-02T23:12:47.921Z,100071.98
2018-10-02T23:17:51.253Z,100080.66
2018-10-02T23:22:54.593Z,100071.93
2018-10-02T23:27:57.887Z,100076.28
2018-10-02T23:33:01.189Z,100082.19
2018-10-02T23:38:04.504Z,100097.98
2018-10-02T23:43:07.888Z,100109.94
2018-10-02T23:48:11.189Z,100119.94
2018-10-02T23:53:14.511Z,100121.27
2018-10-02T23:58:17.855Z,100122.09
